Hurlburt Field, Florida
Current Conditions -  °F | °C
As of 9:58 AM on Tuesday 21 Oct 2014 (Local Time) from KHRT Reporting Station
Clear Clear  
Wind Chill: 22°   Ceiling: Unl
Heat Index: 22°   Visibility: 10mi
Dew Point: 10°   Wind: 8mph
Humidity: 45%   Direction: 30°NNE
Pressure: 30.03"   Gusts: NA
Location:  30.43°N, 86.69°W
Report Text: KHRT 211458Z AUTO 03007KT 10SM CLR 22/10 A3003 RMK AO2 SLP171 T02190096 51006 RVRNO $
Loading
Personal Weather Stations






























Interactive Weather Map
Tropical Storm Tracking
New forecast layout! Learn more

10-Day Weather Forecast

Advertisements
Track Severe Weather on mobile